Share

Abu Musa, Iran

Dubai International (OMDB) Elev 26 ft | 25.25 °N, 55.37 °E | Change Station

Current weather conditions updated 47 minutes ago

Clear
Clear
82 °F
Feels Like 82 °F
N
7
Wind Variable Wind from South
Sunrise 6:25 AM
Sunset 7:15 PM
Moon Waning Gibbous

Today is forecast to be Much Cooler than yesterday.

Pressure 29.71 in
Visibility -9999.0 miles
Clouds
Heat Index 82 °F
Dew Point 59 °F
Humidity 45%
Rainfall 0.00 in
Snow Depth Not available.
UV Not available.
Pollen Not available.
Air Quality Not available.
Flu Activity Not available.
METAR OMDB 172300Z 18006KT CAVOK 28/15 Q1006 NOSIG

More Conditions Fewer Conditions

Pressure 29.71 in
Visibility -9999.0 miles
Clouds
Heat Index 82 °F
Dew Point 59 °F
Humidity 45%
Rainfall 0.00 in
Snow Depth Not available.
UV Not available.
Pollen Not available.
Air Quality Not available.
Flu Activity Not available.
METAR OMDB 172300Z 18006KT CAVOK 28/15 Q1006 NOSIG

More Conditions Fewer Conditions

10-Day Forecast

Almanac

Astronomy

Apr. 18, 2014 Rise Set
Actual Time 6:25 AM IRDT 7:15 PM IRDT
Civil Twilight 6:01 AM IRDT 7:38 PM IRDT
Nautical Twilight 5:33 AM IRDT 8:06 PM IRDT
Astronomical Twilight 5:05 AM IRDT 8:35 PM IRDT
Moon 10:24 PM IRDT (4/18) 8:38 AM IRDT (4/18)
Length of Visible Light 13h 37m
Length of Day
12h 50m
Tomorrow will be 1m 26s longer.
Waning Gibbous, 92% of the Moon is Illuminated
Apr 17
Waning Gibbous
Apr 22
Last Quarter
Apr 29
New
May 6
First Quarter
May 14
Full

Yesterday's Extremes

Country Highs Country Lows

Community

  • Morning Light
    Morning Light
  • New Day
    New Day
  • Lake Michigan Sunrise
    Lake Michigan Sunrise
  • sunset from izmir, narlıdere
    sunset from izmir, narlıdere
  • oregon cherry
    oregon cherry

WunderPhotos

Upload Photos

1,702,176 photos uploaded!

WunderBlogs® & News

Nearby

Snow Depth

Not available.

Coastal Water Temperatures

Place Temperature
No Stations Reporting

Earthquake Activity

City Distance Mag. Time & Date
No recent earthquake activity has been reported nearby.
Minimum magnitude displayed is 2.5.

Nearby Weather Stations

There are no personal weather stations in this area.

What do you think?

We're not finished. Please let us know what you like, what you don't like, and what you are still missing.